createdAt,value
2023-01-13T00:02:29.577Z,100536.63
2023-01-13T00:05:34.109Z,100575.66
2023-01-13T00:08:38.733Z,100493.19
2023-01-13T00:11:43.179Z,100550.44
2023-01-13T00:14:47.565Z,100562.38
2023-01-13T00:17:52.055Z,100548.13
2023-01-13T00:21:01.367Z,100493.41
2023-01-13T00:24:05.965Z,100549.16
2023-01-13T00:27:10.708Z,100539.03
2023-01-13T00:30:16.215Z,100573.56
2023-01-13T00:33:20.503Z,100558.72
2023-01-13T00:36:24.913Z,100497.44
2023-01-13T00:39:29.522Z,100519.53
2023-01-13T00:42:53.876Z,100538.72
2023-01-13T00:46:05.013Z,100515.97
2023-01-13T00:49:09.532Z,100538.31
2023-01-13T00:52:14.147Z,100557.56
2023-01-13T00:55:18.770Z,100568.56
2023-01-13T00:58:23.166Z,100562.47
2023-01-13T01:01:27.836Z,100580.41
2023-01-13T01:58:22.671Z,100597.13
2023-01-13T02:01:27.498Z,100556.81
2023-01-13T02:04:51.332Z,100580.19
2023-01-13T02:08:00.609Z,100592.44
2023-01-13T02:11:28.049Z,100570.78
2023-01-13T02:14:35.331Z,100588.06
2023-01-13T02:18:27.478Z,100614.69
2023-01-13T02:21:57.811Z,100624.69
2023-01-13T02:25:23.967Z,100609.72
2023-01-13T02:29:14.148Z,100615.91
2023-01-13T02:32:41.312Z,100592.38
2023-01-13T02:36:03.963Z,100623.81
2023-01-13T02:39:24.567Z,100625.25
2023-01-13T02:42:50.047Z,100609.25
2023-01-13T02:46:02.693Z,100604.19
2023-01-13T02:49:12.269Z,100618.72
2023-01-13T02:52:47.093Z,100618.34
2023-01-13T02:55:55.421Z,100603.13
2023-01-13T02:59:02.101Z,100600.56
2023-01-13T03:02:09.804Z,100615.53
2023-01-13T03:05:18.396Z,100578.81
2023-01-13T03:08:43.691Z,100599.00
2023-01-13T03:12:04.680Z,100623.63
2023-01-13T03:15:30.655Z,100633.06
2023-01-13T03:18:48.460Z,100506.97
2023-01-13T03:22:43.814Z,100637.81
2023-01-13T03:26:27.842Z,100650.22
2023-01-13T03:29:41.398Z,100657.09
2023-01-13T03:32:50.412Z,100666.53
2023-01-13T03:36:00.263Z,100664.56
2023-01-13T03:39:21.337Z,100669.28
2023-01-13T03:42:30.148Z,100657.59
2023-01-13T03:45:37.402Z,100654.00
2023-01-13T03:48:45.895Z,100684.69
2023-01-13T03:51:59.554Z,100664.84
2023-01-13T03:55:11.078Z,100640.84
2023-01-13T03:58:18.294Z,100628.41
2023-01-13T04:02:10.567Z,100689.47
2023-01-13T04:05:16.264Z,100693.78
2023-01-13T04:08:29.454Z,100681.09
2023-01-13T04:11:42.094Z,100678.25
2023-01-13T04:14:47.524Z,100652.59
2023-01-13T04:17:53.143Z,100674.66
2023-01-13T04:21:03.119Z,100675.09
2023-01-13T04:24:07.860Z,100620.66
2023-01-13T04:27:12.900Z,100669.41
2023-01-13T04:30:17.672Z,100655.28
2023-01-13T04:33:22.301Z,100695.03
2023-01-13T04:36:28.570Z,100681.66
2023-01-13T04:39:33.044Z,100684.78
2023-01-13T04:42:37.503Z,100663.03
2023-01-13T04:45:42.114Z,100667.16
2023-01-13T04:48:46.534Z,100657.84
2023-01-13T04:51:50.977Z,100663.47
2023-01-13T04:54:55.732Z,100655.19
2023-01-13T04:58:12.051Z,100651.00
2023-01-13T05:01:16.405Z,100685.28
2023-01-13T05:04:23.746Z,100694.94
2023-01-13T05:07:28.592Z,100710.81
2023-01-13T05:10:33.228Z,100706.91
2023-01-13T05:13:55.929Z,100723.56
2023-01-13T05:17:04.164Z,100713.38
2023-01-13T05:20:09.635Z,100756.50
2023-01-13T05:23:32.703Z,100752.00
2023-01-13T05:26:38.690Z,100741.78
2023-01-13T05:29:43.395Z,100787.34
2023-01-13T05:32:48.164Z,100776.78
2023-01-13T05:35:52.994Z,100788.38
2023-01-13T05:38:57.431Z,100778.09
2023-01-13T05:42:20.397Z,100747.13
2023-01-13T05:45:25.594Z,100802.41
2023-01-13T05:48:41.378Z,100848.19
2023-01-13T05:51:46.036Z,100799.44
2023-01-13T05:54:51.864Z,100811.88
2023-01-13T05:57:56.385Z,100847.09
2023-01-13T06:01:02.701Z,100877.13
2023-01-13T06:04:07.310Z,100864.31
2023-01-13T06:07:13.532Z,100897.66
2023-01-13T06:10:19.582Z,100878.91
2023-01-13T06:13:26.164Z,100885.78
2023-01-13T06:16:30.548Z,100911.50
2023-01-13T06:19:35.100Z,100886.53
2023-01-13T06:22:45.168Z,100908.28
2023-01-13T06:26:01.647Z,100921.84
2023-01-13T06:29:07.151Z,100861.69
2023-01-13T06:32:21.652Z,100931.28
2023-01-13T06:35:31.370Z,100952.66
2023-01-13T06:38:39.156Z,100939.56
2023-01-13T06:42:02.405Z,100977.09
2023-01-13T06:45:07.220Z,100959.25
2023-01-13T06:48:11.684Z,100991.16
2023-01-13T06:51:16.132Z,100985.72
2023-01-13T06:54:20.493Z,100972.50
2023-01-13T06:57:25.770Z,101009.75
2023-01-13T07:00:33.115Z,101025.44
2023-01-13T07:03:37.661Z,101031.06
2023-01-13T07:06:42.081Z,100979.63
2023-01-13T07:09:46.724Z,101035.69
2023-01-13T07:13:10.739Z,100986.97
2023-01-13T07:16:15.106Z,101039.00
2023-01-13T07:19:24.491Z,101057.97
2023-01-13T07:22:28.959Z,101066.72
2023-01-13T07:25:33.621Z,101051.91
2023-01-13T07:28:39.222Z,101038.91
2023-01-13T07:31:43.425Z,101085.59
2023-01-13T07:34:47.893Z,101090.66
2023-01-13T07:37:52.548Z,101064.22
2023-01-13T07:40:57.345Z,101044.78
2023-01-13T07:44:05.593Z,101062.28
2023-01-13T07:47:11.999Z,101107.09
2023-01-13T07:50:16.619Z,101098.91
2023-01-13T07:53:21.059Z,101104.25
2023-01-13T07:56:25.366Z,101107.72
2023-01-13T07:59:30.201Z,101116.50
2023-01-13T08:02:34.904Z,101145.66
2023-01-13T08:05:39.609Z,101114.47
2023-01-13T08:08:44.073Z,101136.78
2023-01-13T08:12:08.209Z,101150.13
2023-01-13T08:15:12.778Z,101154.19
2023-01-13T08:18:21.495Z,101158.03
2023-01-13T08:21:26.113Z,101143.00
2023-01-13T08:24:30.499Z,101161.31
2023-01-13T08:27:35.278Z,101191.97
2023-01-13T08:30:42.338Z,101191.06
2023-01-13T08:33:47.815Z,101195.31
2023-01-13T08:36:52.174Z,101218.97
2023-01-13T08:39:56.462Z,101206.56
2023-01-13T08:43:01.362Z,101232.19
2023-01-13T08:46:06.029Z,101186.25
2023-01-13T08:49:10.477Z,101219.25
2023-01-13T08:52:15.280Z,101250.19
2023-01-13T08:55:19.920Z,101265.06
2023-01-13T08:58:24.555Z,101228.06
2023-01-13T09:01:29.519Z,101245.88
2023-01-13T09:04:33.999Z,101280.22
2023-01-13T09:07:39.921Z,101270.91
2023-01-13T09:10:44.572Z,101288.25
2023-01-13T09:13:49.071Z,101295.19
2023-01-13T09:16:53.651Z,101264.06
2023-01-13T09:19:58.451Z,101285.44
2023-01-13T09:23:03.045Z,101297.94
2023-01-13T09:26:07.843Z,101284.66
2023-01-13T09:29:13.609Z,101321.44
2023-01-13T09:32:18.176Z,101349.66
2023-01-13T09:35:22.611Z,101338.34
2023-01-13T09:38:29.980Z,101359.94
2023-01-13T09:41:58.097Z,101367.56
2023-01-13T09:45:08.319Z,101394.28
2023-01-13T09:48:30.455Z,101406.81
2023-01-13T09:51:46.538Z,101389.38
2023-01-13T09:54:57.088Z,101408.97
2023-01-13T09:58:11.214Z,101406.34
2023-01-13T10:01:38.476Z,101388.38
2023-01-13T10:04:44.102Z,101380.09
2023-01-13T10:07:54.992Z,101373.66
2023-01-13T10:11:06.569Z,101350.91
2023-01-13T10:14:20.140Z,101428.88
2023-01-13T10:17:59.460Z,101428.78
2023-01-13T10:22:02.129Z,101436.03
2023-01-13T10:25:52.231Z,101404.00
2023-01-13T10:28:58.951Z,101460.06
2023-01-13T10:32:03.514Z,101449.66
2023-01-13T10:35:10.310Z,101415.47
2023-01-13T10:38:22.890Z,101465.94
2023-01-13T10:41:29.018Z,101388.38
2023-01-13T10:44:40.549Z,101461.75
2023-01-13T10:48:07.841Z,101468.41
2023-01-13T10:51:15.704Z,101475.00
2023-01-13T10:54:25.322Z,101487.28
2023-01-13T10:57:29.924Z,101497.44
2023-01-13T11:00:35.939Z,101510.06
2023-01-13T11:03:46.160Z,101494.00
2023-01-13T11:06:52.268Z,101491.56
2023-01-13T11:10:19.934Z,101533.78
2023-01-13T11:14:04.432Z,101506.84
2023-01-13T11:17:29.003Z,101506.47
2023-01-13T11:20:42.276Z,101484.69
2023-01-13T11:23:54.680Z,101506.09
2023-01-13T11:27:05.796Z,101491.59
2023-01-13T11:30:22.041Z,101533.88
2023-01-13T11:33:29.328Z,101537.78
2023-01-13T11:36:46.952Z,101525.09
2023-01-13T11:39:55.113Z,101538.69
2023-01-13T11:43:28.220Z,101552.56
2023-01-13T11:46:33.574Z,101524.59
2023-01-13T11:49:39.394Z,101556.81
2023-01-13T11:53:03.747Z,101551.63
2023-01-13T11:56:46.634Z,101518.97
2023-01-13T12:00:15.299Z,101536.13
2023-01-13T12:03:33.405Z,101542.13
2023-01-13T12:06:41.066Z,101517.66
2023-01-13T12:10:27.025Z,101527.31
2023-01-13T12:13:47.728Z,101445.53
2023-01-13T12:16:52.494Z,101563.16
2023-01-13T12:19:57.413Z,101556.53
2023-01-13T12:23:07.472Z,101564.44
2023-01-13T12:26:17.529Z,101521.91
2023-01-13T12:29:27.293Z,101585.63
2023-01-13T12:32:39.343Z,101549.69
2023-01-13T12:36:15.615Z,101562.25
2023-01-13T12:39:19.998Z,101601.09
2023-01-13T12:42:52.343Z,101611.72
2023-01-13T12:46:22.356Z,101601.88
2023-01-13T12:49:33.117Z,101590.22
2023-01-13T12:52:47.314Z,101612.84
2023-01-13T12:55:55.042Z,101536.63
2023-01-13T12:59:18.403Z,101597.06
2023-01-13T13:02:29.544Z,101544.56
2023-01-13T13:05:51.508Z,101620.69
2023-01-13T13:09:30.555Z,101584.13
2023-01-13T13:13:02.981Z,101625.56
2023-01-13T13:16:26.485Z,101643.28
2023-01-13T13:19:34.687Z,101641.78
2023-01-13T13:22:52.221Z,101631.91
2023-01-13T13:26:33.237Z,101618.22
2023-01-13T13:30:05.336Z,101643.81
2023-01-13T13:33:15.673Z,101647.41
2023-01-13T13:36:47.808Z,101662.63
2023-01-13T13:40:11.025Z,101650.69
2023-01-13T13:43:35.608Z,101675.16
2023-01-13T13:46:47.937Z,101667.41
2023-01-13T13:49:57.739Z,101655.59
2023-01-13T13:53:09.295Z,101672.25
2023-01-13T13:56:21.320Z,101642.03
2023-01-13T13:59:31.305Z,101663.16
2023-01-13T14:02:38.828Z,101624.34
2023-01-13T14:05:55.586Z,101666.34
2023-01-13T14:09:00.324Z,101656.00
2023-01-13T14:12:09.895Z,101673.13
2023-01-13T14:15:29.826Z,101677.31
2023-01-13T14:18:45.850Z,101683.59
2023-01-13T14:21:50.241Z,101694.97
2023-01-13T14:24:58.851Z,101668.16
2023-01-13T14:28:26.156Z,101703.81
2023-01-13T14:31:31.708Z,101654.44
2023-01-13T14:34:38.608Z,101686.06
2023-01-13T14:37:44.604Z,101721.81
2023-01-13T14:40:50.302Z,101692.09
2023-01-13T14:43:58.379Z,101695.94
2023-01-13T14:47:06.287Z,101664.84
2023-01-13T14:50:13.556Z,101719.34
2023-01-13T14:53:48.414Z,101669.38
2023-01-13T14:57:28.620Z,101718.25
2023-01-13T15:00:33.782Z,101690.19
2023-01-13T15:03:42.816Z,101727.44
2023-01-13T15:06:49.099Z,101672.16
2023-01-13T15:10:05.624Z,101704.91
2023-01-13T15:13:36.258Z,101687.63
2023-01-13T15:16:40.523Z,101709.09
2023-01-13T15:19:45.172Z,101703.03
2023-01-13T15:22:50.456Z,101689.41
2023-01-13T15:25:55.627Z,101623.25
2023-01-13T15:29:01.622Z,101720.63
2023-01-13T15:32:06.459Z,101710.31
2023-01-13T15:35:18.567Z,101733.19
2023-01-13T15:38:25.404Z,101734.94
2023-01-13T15:41:51.398Z,101648.44
2023-01-13T15:45:14.613Z,101712.97
2023-01-13T15:48:22.031Z,101703.28
2023-01-13T15:51:26.720Z,101739.16
2023-01-13T15:54:31.645Z,101680.63
2023-01-13T15:57:39.056Z,101634.91
2023-01-13T16:00:44.054Z,101741.31
2023-01-13T16:03:48.496Z,101741.50
2023-01-13T16:06:53.119Z,101737.25
2023-01-13T16:09:57.748Z,101748.41
2023-01-13T16:13:02.583Z,101689.53
2023-01-13T16:16:20.647Z,101776.13
2023-01-13T16:19:24.997Z,101768.25
2023-01-13T16:22:29.445Z,101773.59
2023-01-13T16:25:34.200Z,101800.63
2023-01-13T16:28:38.665Z,101792.41
2023-01-13T16:31:42.977Z,101824.44
2023-01-13T16:34:47.795Z,101802.94
2023-01-13T16:37:54.644Z,101771.59
2023-01-13T16:40:59.242Z,101819.41
2023-01-13T16:44:06.847Z,101841.44
2023-01-13T16:47:17.293Z,101785.28
2023-01-13T16:50:29.473Z,101870.44
2023-01-13T16:53:33.913Z,101869.06
2023-01-13T16:56:39.044Z,101864.63
2023-01-13T16:59:43.292Z,101846.66
2023-01-13T17:02:48.188Z,101890.03
2023-01-13T17:05:52.737Z,101895.28
2023-01-13T17:09:05.998Z,101926.31
2023-01-13T17:12:12.473Z,101919.00
2023-01-13T17:15:19.429Z,101909.75
2023-01-13T17:18:23.783Z,101844.03
2023-01-13T17:21:28.348Z,101841.34
2023-01-13T17:24:36.018Z,101858.88
2023-01-13T17:27:40.577Z,101901.63
2023-01-13T17:30:45.565Z,101907.34
2023-01-13T17:33:49.895Z,101905.53
2023-01-13T17:36:54.336Z,101903.75
2023-01-13T17:39:58.859Z,101904.66
2023-01-13T17:43:03.442Z,101928.28
2023-01-13T17:46:10.566Z,101919.53
2023-01-13T17:49:22.615Z,101923.09
2023-01-13T17:52:27.285Z,101904.06
2023-01-13T17:55:31.807Z,101918.31
2023-01-13T17:58:36.635Z,101903.00
2023-01-13T18:01:41.702Z,101919.63
2023-01-13T18:04:46.532Z,101940.94
2023-01-13T18:07:52.160Z,101930.75
2023-01-13T18:10:58.668Z,101884.84
2023-01-13T18:14:03.021Z,101919.59
2023-01-13T18:17:07.802Z,101927.53
2023-01-13T18:20:35.185Z,101955.00
2023-01-13T18:23:58.085Z,101924.69
2023-01-13T18:27:24.493Z,101925.47
2023-01-13T18:30:29.706Z,101958.91
2023-01-13T18:33:37.357Z,101905.63
2023-01-13T18:36:41.744Z,101962.22
2023-01-13T18:39:46.193Z,101960.53
2023-01-13T18:42:55.321Z,101989.56
2023-01-13T18:45:59.890Z,101977.56
2023-01-13T18:49:04.369Z,101985.69
2023-01-13T18:52:08.899Z,101991.06
2023-01-13T18:55:13.791Z,101995.88
2023-01-13T18:58:18.214Z,101954.50
2023-01-13T19:01:26.634Z,102016.69
2023-01-13T19:04:33.766Z,101987.72
2023-01-13T19:07:38.349Z,101903.63
2023-01-13T19:10:42.894Z,102011.56
2023-01-13T19:13:48.228Z,102033.28
2023-01-13T19:16:52.228Z,102032.81
2023-01-13T19:19:59.267Z,102029.19
2023-01-13T19:23:03.636Z,102033.81
2023-01-13T19:26:11.144Z,102036.06
2023-01-13T19:29:15.893Z,102007.75
2023-01-13T19:32:21.040Z,102002.25
2023-01-13T19:35:26.504Z,102006.63
2023-01-13T19:38:31.013Z,102010.66
2023-01-13T19:41:57.000Z,101976.94
2023-01-13T19:45:20.034Z,101924.69
2023-01-13T19:48:24.710Z,101986.59
2023-01-13T19:51:31.123Z,102016.56
2023-01-13T19:54:35.990Z,101998.19
2023-01-13T19:57:41.321Z,101986.09
2023-01-13T20:00:49.281Z,102001.31
2023-01-13T20:03:53.692Z,101978.25
2023-01-13T20:06:58.321Z,101995.56
2023-01-13T20:10:03.279Z,101989.94
2023-01-13T20:13:08.878Z,101943.25
2023-01-13T20:16:13.244Z,101980.38
2023-01-13T20:19:17.612Z,102010.38
2023-01-13T20:22:22.082Z,102022.28
2023-01-13T20:25:29.475Z,102011.25
2023-01-13T20:28:37.860Z,101997.13
2023-01-13T20:31:42.057Z,101986.63
2023-01-13T20:34:46.586Z,102036.72
2023-01-13T20:37:51.083Z,102038.38
2023-01-13T20:41:22.784Z,102027.66
2023-01-13T20:44:27.632Z,102035.91
2023-01-13T20:47:32.303Z,102010.91
2023-01-13T20:50:36.971Z,101994.88
2023-01-13T20:53:42.375Z,102044.16
2023-01-13T20:56:46.935Z,102068.28
2023-01-13T20:59:51.568Z,102039.22
2023-01-13T21:02:55.908Z,102057.50
2023-01-13T21:06:00.231Z,102057.13
2023-01-13T21:09:04.752Z,102058.81
2023-01-13T21:12:28.493Z,102063.16
2023-01-13T21:15:34.014Z,102085.78
2023-01-13T21:18:57.321Z,102046.78
2023-01-13T21:22:01.803Z,102082.00
2023-01-13T21:25:07.275Z,102070.69
2023-01-13T21:28:12.882Z,102048.59
2023-01-13T21:31:18.176Z,102092.59
2023-01-13T21:34:22.652Z,102095.66
2023-01-13T21:37:27.057Z,102054.09
2023-01-13T21:40:31.378Z,102068.19
2023-01-13T21:43:56.277Z,102068.53
2023-01-13T21:47:19.071Z,102068.31
2023-01-13T21:50:29.317Z,102096.16
2023-01-13T21:53:33.478Z,102088.00
2023-01-13T21:56:37.963Z,102071.09
2023-01-13T21:59:42.433Z,102062.94
2023-01-13T22:02:47.127Z,102092.22
2023-01-13T22:05:56.589Z,102068.34
2023-01-13T22:09:01.910Z,102099.66
2023-01-13T22:12:06.796Z,102101.63
2023-01-13T22:15:13.323Z,102101.09
2023-01-13T22:18:19.000Z,102101.22
2023-01-13T22:21:23.569Z,102098.09
2023-01-13T22:24:30.989Z,102110.56
2023-01-13T22:27:45.188Z,102108.66
2023-01-13T22:30:50.691Z,102108.72
2023-01-13T22:33:56.944Z,101884.91
2023-01-13T22:37:02.543Z,102123.63
2023-01-13T22:40:08.958Z,102127.19
2023-01-13T22:43:13.427Z,102126.22
2023-01-13T22:46:18.157Z,102148.75
2023-01-13T22:49:26.392Z,102098.44
2023-01-13T22:52:31.137Z,102163.94
2023-01-13T22:55:35.545Z,102113.22
2023-01-13T22:58:41.988Z,102160.69
2023-01-13T23:01:46.312Z,102154.13
2023-01-13T23:04:51.465Z,102173.81
2023-01-13T23:07:55.523Z,102198.91
2023-01-13T23:11:07.950Z,102199.13
2023-01-13T23:14:13.921Z,102158.94
2023-01-13T23:17:18.818Z,102126.31
2023-01-13T23:20:23.383Z,102207.47
2023-01-13T23:23:27.920Z,102217.31
2023-01-13T23:26:33.943Z,102177.31
2023-01-13T23:29:40.964Z,102157.94
2023-01-13T23:32:46.477Z,102217.50
2023-01-13T23:36:17.403Z,102201.50
2023-01-13T23:39:21.471Z,102209.00
2023-01-13T23:42:50.279Z,102214.88
2023-01-13T23:46:03.312Z,102224.72
2023-01-13T23:49:14.169Z,102183.75
2023-01-13T23:52:38.438Z,102223.41
2023-01-13T23:56:09.055Z,102232.78
2023-01-13T23:59:13.873Z,102226.94
